sensor_id;sensor_type;location;lat;lon;timestamp;P1;P2;P0
56360;PMS7003;42611;51.132;13.588;2022-08-19T00:02:01;28.4;27.2;
56360;PMS7003;42611;51.132;13.588;2022-08-19T00:07:03;28.6;27.4;
56360;PMS7003;42611;51.132;13.588;2022-08-19T00:12:02;28.9;28.0;
56360;PMS7003;42611;51.132;13.588;2022-08-19T00:17:01;28.7;28.0;
56360;PMS7003;42611;51.132;13.588;2022-08-19T00:27:16;28.4;27.9;
56360;PMS7003;42611;51.132;13.588;2022-08-19T00:32:01;29.1;28.0;
56360;PMS7003;42611;51.132;13.588;2022-08-19T00:37:01;29.9;28.3;
56360;PMS7003;42611;51.132;13.588;2022-08-19T00:42:01;30.1;28.2;
56360;PMS7003;42611;51.132;13.588;2022-08-19T00:47:01;31.1;28.7;
56360;PMS7003;42611;51.132;13.588;2022-08-19T00:52:04;31.4;29.1;
56360;PMS7003;42611;51.132;13.588;2022-08-19T00:57:01;31.3;29.2;
56360;PMS7003;42611;51.132;13.588;2022-08-19T01:02:01;31.2;29.3;
56360;PMS7003;42611;51.132;13.588;2022-08-19T01:07:02;32.3;30.2;
56360;PMS7003;42611;51.132;13.588;2022-08-19T01:12:02;33.0;30.6;
56360;PMS7003;42611;51.132;13.588;2022-08-19T01:17:02;34.2;31.2;
56360;PMS7003;42611;51.132;13.588;2022-08-19T01:22:31;35.1;31.4;
56360;PMS7003;42611;51.132;13.588;2022-08-19T01:27:04;35.4;31.3;
56360;PMS7003;42611;51.132;13.588;2022-08-19T01:32:01;36.2;31.6;
56360;PMS7003;42611;51.132;13.588;2022-08-19T01:37:05;35.3;31.0;
56360;PMS7003;42611;51.132;13.588;2022-08-19T01:42:02;35.6;31.1;
56360;PMS7003;42611;51.132;13.588;2022-08-19T01:47:01;36.0;31.5;
56360;PMS7003;42611;51.132;13.588;2022-08-19T01:52:02;36.3;32.0;
56360;PMS7003;42611;51.132;13.588;2022-08-19T01:57:03;36.2;32.0;
56360;PMS7003;42611;51.132;13.588;2022-08-19T02:02:02;37.8;32.8;
56360;PMS7003;42611;51.132;13.588;2022-08-19T02:07:01;38.6;33.4;
56360;PMS7003;42611;51.132;13.588;2022-08-19T02:17:02;37.9;33.1;
56360;PMS7003;42611;51.132;13.588;2022-08-19T02:22:01;38.5;33.6;
56360;PMS7003;42611;51.132;13.588;2022-08-19T02:27:01;38.0;33.5;
56360;PMS7003;42611;51.132;13.588;2022-08-19T02:37:04;38.1;33.9;
56360;PMS7003;42611;51.132;13.588;2022-08-19T02:42:02;39.6;34.7;
56360;PMS7003;42611;51.132;13.588;2022-08-19T02:47:01;38.2;33.8;
56360;PMS7003;42611;51.132;13.588;2022-08-19T02:52:03;37.2;33.2;
56360;PMS7003;42611;51.132;13.588;2022-08-19T02:57:02;36.6;32.5;
56360;PMS7003;42611;51.132;13.588;2022-08-19T03:02:01;35.6;31.9;
56360;PMS7003;42611;51.132;13.588;2022-08-19T03:07:13;35.2;31.6;
56360;PMS7003;42611;51.132;13.588;2022-08-19T03:12:02;35.9;32.1;
56360;PMS7003;42611;51.132;13.588;2022-08-19T03:17:02;37.1;32.8;
56360;PMS7003;42611;51.132;13.588;2022-08-19T03:22:01;36.9;32.7;
56360;PMS7003;42611;51.132;13.588;2022-08-19T03:27:02;37.4;33.1;
56360;PMS7003;42611;51.132;13.588;2022-08-19T03:32:05;37.2;33.1;
56360;PMS7003;42611;51.132;13.588;2022-08-19T03:37:04;37.7;32.9;
56360;PMS7003;42611;51.132;13.588;2022-08-19T03:42:16;38.1;32.9;
56360;PMS7003;42611;51.132;13.588;2022-08-19T03:47:01;39.8;33.8;
56360;PMS7003;42611;51.132;13.588;2022-08-19T03:52:02;39.5;33.4;
56360;PMS7003;42611;51.132;13.588;2022-08-19T03:57:02;40.0;33.4;
56360;PMS7003;42611;51.132;13.588;2022-08-19T04:02:02;40.6;34.0;
56360;PMS7003;42611;51.132;13.588;2022-08-19T04:07:01;39.2;33.6;
56360;PMS7003;42611;51.132;13.588;2022-08-19T04:12:02;38.1;33.2;
56360;PMS7003;42611;51.132;13.588;2022-08-19T04:17:02;38.0;32.9;
56360;PMS7003;42611;51.132;13.588;2022-08-19T04:22:02;36.6;32.3;
56360;PMS7003;42611;51.132;13.588;2022-08-19T04:27:02;35.1;31.5;
56360;PMS7003;42611;51.132;13.588;2022-08-19T04:32:10;34.8;31.2;
56360;PMS7003;42611;51.132;13.588;2022-08-19T04:37:01;33.7;30.7;
56360;PMS7003;42611;51.132;13.588;2022-08-19T04:42:02;34.6;31.6;
56360;PMS7003;42611;51.132;13.588;2022-08-19T04:47:02;35.7;32.4;
56360;PMS7003;42611;51.132;13.588;2022-08-19T04:52:01;36.0;32.8;
56360;PMS7003;42611;51.132;13.588;2022-08-19T04:57:01;37.1;33.2;
56360;PMS7003;42611;51.132;13.588;2022-08-19T05:02:02;36.0;32.6;
56360;PMS7003;42611;51.132;13.588;2022-08-19T05:07:02;34.5;31.7;
56360;PMS7003;42611;51.132;13.588;2022-08-19T05:12:01;33.6;30.9;
56360;PMS7003;42611;51.132;13.588;2022-08-19T05:17:16;33.0;30.3;
56360;PMS7003;42611;51.132;13.588;2022-08-19T05:22:02;32.0;29.9;
56360;PMS7003;42611;51.132;13.588;2022-08-19T05:27:02;33.4;30.5;
56360;PMS7003;42611;51.132;13.588;2022-08-19T05:32:03;36.4;32.1;
56360;PMS7003;42611;51.132;13.588;2022-08-19T05:37:02;35.6;31.7;
56360;PMS7003;42611;51.132;13.588;2022-08-19T05:42:03;34.6;31.0;
56360;PMS7003;42611;51.132;13.588;2022-08-19T05:47:03;33.1;29.9;
56360;PMS7003;42611;51.132;13.588;2022-08-19T05:52:02;30.5;28.0;
56360;PMS7003;42611;51.132;13.588;2022-08-19T05:57:01;26.0;24.7;
56360;PMS7003;42611;51.132;13.588;2022-08-19T06:02:02;24.0;23.2;
56360;PMS7003;42611;51.132;13.588;2022-08-19T06:07:13;22.8;22.2;
56360;PMS7003;42611;51.132;13.588;2022-08-19T06:12:02;23.0;21.7;
56360;PMS7003;42611;51.132;13.588;2022-08-19T06:17:07;22.8;21.1;
56360;PMS7003;42611;51.132;13.588;2022-08-19T06:22:03;22.9;21.5;
56360;PMS7003;42611;51.132;13.588;2022-08-19T06:27:02;23.6;21.6;
56360;PMS7003;42611;51.132;13.588;2022-08-19T06:37:02;24.1;22.7;
56360;PMS7003;42611;51.132;13.588;2022-08-19T06:42:02;25.8;24.6;
56360;PMS7003;42611;51.132;13.588;2022-08-19T06:47:25;27.3;25.6;
56360;PMS7003;42611;51.132;13.588;2022-08-19T06:52:02;28.7;27.4;
56360;PMS7003;42611;51.132;13.588;2022-08-19T06:57:01;30.8;29.2;
56360;PMS7003;42611;51.132;13.588;2022-08-19T07:02:02;31.4;29.4;
56360;PMS7003;42611;51.132;13.588;2022-08-19T07:07:16;32.3;29.7;
56360;PMS7003;42611;51.132;13.588;2022-08-19T07:17:01;31.8;29.6;
56360;PMS7003;42611;51.132;13.588;2022-08-19T07:22:02;32.0;29.6;
56360;PMS7003;42611;51.132;13.588;2022-08-19T07:27:02;33.4;29.9;
56360;PMS7003;42611;51.132;13.588;2022-08-19T07:32:02;33.5;30.1;
56360;PMS7003;42611;51.132;13.588;2022-08-19T07:37:01;34.4;30.3;
56360;PMS7003;42611;51.132;13.588;2022-08-19T07:42:03;35.2;30.8;
56360;PMS7003;42611;51.132;13.588;2022-08-19T07:47:02;34.7;30.4;
56360;PMS7003;42611;51.132;13.588;2022-08-19T07:52:03;34.2;30.4;
56360;PMS7003;42611;51.132;13.588;2022-08-19T07:57:02;33.2;30.0;
56360;PMS7003;42611;51.132;13.588;2022-08-19T08:02:02;32.1;29.4;
56360;PMS7003;42611;51.132;13.588;2022-08-19T08:07:07;31.0;28.8;
56360;PMS7003;42611;51.132;13.588;2022-08-19T08:12:22;30.9;29.0;
56360;PMS7003;42611;51.132;13.588;2022-08-19T08:17:02;29.4;28.4;
56360;PMS7003;42611;51.132;13.588;2022-08-19T08:22:02;30.0;28.4;
56360;PMS7003;42611;51.132;13.588;2022-08-19T08:27:02;30.6;29.0;
56360;PMS7003;42611;51.132;13.588;2022-08-19T08:37:01;31.1;28.8;
56360;PMS7003;42611;51.132;13.588;2022-08-19T08:42:35;32.6;29.4;
56360;PMS7003;42611;51.132;13.588;2022-08-19T08:47:02;31.6;29.1;
56360;PMS7003;42611;51.132;13.588;2022-08-19T08:52:18;30.3;27.8;
56360;PMS7003;42611;51.132;13.588;2022-08-19T08:57:03;30.6;27.9;
56360;PMS7003;42611;51.132;13.588;2022-08-19T09:02:02;30.8;28.3;
56360;PMS7003;42611;51.132;13.588;2022-08-19T09:07:20;30.2;28.0;
56360;PMS7003;42611;51.132;13.588;2022-08-19T09:12:05;31.5;28.8;
56360;PMS7003;42611;51.132;13.588;2022-08-19T09:17:01;32.8;30.1;
56360;PMS7003;42611;51.132;13.588;2022-08-19T09:22:01;33.8;30.7;
56360;PMS7003;42611;51.132;13.588;2022-08-19T09:27:19;34.0;30.7;
56360;PMS7003;42611;51.132;13.588;2022-08-19T09:32:01;35.3;31.2;
56360;PMS7003;42611;51.132;13.588;2022-08-19T09:37:01;35.0;30.8;
56360;PMS7003;42611;51.132;13.588;2022-08-19T09:42:02;33.5;30.0;
56360;PMS7003;42611;51.132;13.588;2022-08-19T09:47:01;31.7;29.0;
56360;PMS7003;42611;51.132;13.588;2022-08-19T09:52:01;29.7;27.5;
56360;PMS7003;42611;51.132;13.588;2022-08-19T09:57:08;27.1;25.8;
56360;PMS7003;42611;51.132;13.588;2022-08-19T10:02:11;24.9;24.4;
56360;PMS7003;42611;51.132;13.588;2022-08-19T10:07:01;24.8;24.2;
56360;PMS7003;42611;51.132;13.588;2022-08-19T10:12:03;24.2;23.6;
56360;PMS7003;42611;51.132;13.588;2022-08-19T10:17:16;24.1;23.6;
56360;PMS7003;42611;51.132;13.588;2022-08-19T10:22:04;23.8;23.6;
56360;PMS7003;42611;51.132;13.588;2022-08-19T10:27:01;25.3;24.8;
56360;PMS7003;42611;51.132;13.588;2022-08-19T10:32:04;24.3;23.9;
56360;PMS7003;42611;51.132;13.588;2022-08-19T10:37:03;23.8;23.5;
56360;PMS7003;42611;51.132;13.588;2022-08-19T10:42:05;24.3;23.6;
56360;PMS7003;42611;51.132;13.588;2022-08-19T10:47:03;24.7;23.7;
56360;PMS7003;42611;51.132;13.588;2022-08-19T10:52:02;23.9;23.0;
56360;PMS7003;42611;51.132;13.588;2022-08-19T10:57:01;25.2;24.1;
56360;PMS7003;42611;51.132;13.588;2022-08-19T11:02:04;26.7;24.8;
56360;PMS7003;42611;51.132;13.588;2022-08-19T11:07:02;27.8;25.6;
56360;PMS7003;42611;51.132;13.588;2022-08-19T11:12:05;28.2;25.9;
56360;PMS7003;42611;51.132;13.588;2022-08-19T11:17:02;29.2;26.7;
56360;PMS7003;42611;51.132;13.588;2022-08-19T11:22:06;29.9;27.2;
56360;PMS7003;42611;51.132;13.588;2022-08-19T11:27:08;29.6;27.5;
56360;PMS7003;42611;51.132;13.588;2022-08-19T11:32:06;29.9;27.6;
56360;PMS7003;42611;51.132;13.588;2022-08-19T11:37:03;31.2;28.9;
56360;PMS7003;42611;51.132;13.588;2022-08-19T11:42:02;33.9;30.4;
56360;PMS7003;42611;51.132;13.588;2022-08-19T11:48:01;35.3;31.2;
56360;PMS7003;42611;51.132;13.588;2022-08-19T11:53:02;38.9;33.5;
56360;PMS7003;42611;51.132;13.588;2022-08-19T11:58:01;39.5;34.1;
56360;PMS7003;42611;51.132;13.588;2022-08-19T12:03:03;40.6;34.6;
56360;PMS7003;42611;51.132;13.588;2022-08-19T12:13:01;41.4;35.2;
56360;PMS7003;42611;51.132;13.588;2022-08-19T12:18:04;39.9;34.3;
56360;PMS7003;42611;51.132;13.588;2022-08-19T12:23:03;41.0;34.8;
56360;PMS7003;42611;51.132;13.588;2022-08-19T12:28:04;40.0;34.3;
56360;PMS7003;42611;51.132;13.588;2022-08-19T12:33:02;37.7;33.1;
56360;PMS7003;42611;51.132;13.588;2022-08-19T12:38:02;36.1;32.2;
56360;PMS7003;42611;51.132;13.588;2022-08-19T12:43:01;35.6;31.7;
56360;PMS7003;42611;51.132;13.588;2022-08-19T12:48:16;35.4;31.8;
56360;PMS7003;42611;51.132;13.588;2022-08-19T12:53:01;34.8;31.4;
56360;PMS7003;42611;51.132;13.588;2022-08-19T12:58:01;35.4;31.4;
56360;PMS7003;42611;51.132;13.588;2022-08-19T13:03:01;35.6;31.2;
56360;PMS7003;42611;51.132;13.588;2022-08-19T13:08:01;36.6;31.8;
56360;PMS7003;42611;51.132;13.588;2022-08-19T13:13:02;36.4;31.5;
56360;PMS7003;42611;51.132;13.588;2022-08-19T13:18:01;37.5;31.9;
56360;PMS7003;42611;51.132;13.588;2022-08-19T13:23:01;37.7;32.5;
56360;PMS7003;42611;51.132;13.588;2022-08-19T13:28:01;38.6;33.1;
56360;PMS7003;42611;51.132;13.588;2022-08-19T13:33:01;38.2;33.2;
56360;PMS7003;42611;51.132;13.588;2022-08-19T13:38:01;37.6;33.0;
56360;PMS7003;42611;51.132;13.588;2022-08-19T13:43:25;37.8;33.3;
56360;PMS7003;42611;51.132;13.588;2022-08-19T13:49:01;37.2;32.6;
56360;PMS7003;42611;51.132;13.588;2022-08-19T13:54:01;37.4;32.7;
56360;PMS7003;42611;51.132;13.588;2022-08-19T13:59:01;37.7;32.8;
56360;PMS7003;42611;51.132;13.588;2022-08-19T14:04:02;39.2;33.9;
56360;PMS7003;42611;51.132;13.588;2022-08-19T14:09:01;39.4;33.8;
56360;PMS7003;42611;51.132;13.588;2022-08-19T14:14:02;40.6;34.6;
56360;PMS7003;42611;51.132;13.588;2022-08-19T14:19:01;41.3;35.3;
56360;PMS7003;42611;51.132;13.588;2022-08-19T14:24:01;42.3;36.0;
56360;PMS7003;42611;51.132;13.588;2022-08-19T14:29:02;42.7;36.4;
56360;PMS7003;42611;51.132;13.588;2022-08-19T14:34:01;44.0;37.2;
56360;PMS7003;42611;51.132;13.588;2022-08-19T14:39:02;44.7;37.4;
56360;PMS7003;42611;51.132;13.588;2022-08-19T14:44:02;44.2;36.8;
56360;PMS7003;42611;51.132;13.588;2022-08-19T14:49:09;44.6;37.4;
56360;PMS7003;42611;51.132;13.588;2022-08-19T14:54:01;45.2;37.6;
56360;PMS7003;42611;51.132;13.588;2022-08-19T14:59:02;44.4;37.4;
56360;PMS7003;42611;51.132;13.588;2022-08-19T15:04:01;44.8;37.8;
56360;PMS7003;42611;51.132;13.588;2022-08-19T15:09:04;44.1;37.4;
56360;PMS7003;42611;51.132;13.588;2022-08-19T15:14:01;43.4;36.5;
56360;PMS7003;42611;51.132;13.588;2022-08-19T15:19:01;41.8;35.3;
56360;PMS7003;42611;51.132;13.588;2022-08-19T15:24:01;42.7;35.6;
56360;PMS7003;42611;51.132;13.588;2022-08-19T15:34:02;43.9;36.1;
56360;PMS7003;42611;51.132;13.588;2022-08-19T15:39:03;44.3;36.1;
56360;PMS7003;42611;51.132;13.588;2022-08-19T15:44:03;42.8;35.6;
56360;PMS7003;42611;51.132;13.588;2022-08-19T15:49:02;41.5;34.7;
56360;PMS7003;42611;51.132;13.588;2022-08-19T15:54:04;39.5;33.6;
56360;PMS7003;42611;51.132;13.588;2022-08-19T15:59:01;37.2;32.6;
56360;PMS7003;42611;51.132;13.588;2022-08-19T16:04:03;36.6;32.7;
56360;PMS7003;42611;51.132;13.588;2022-08-19T16:09:02;38.3;33.3;
56360;PMS7003;42611;51.132;13.588;2022-08-19T16:14:01;38.7;33.5;
56360;PMS7003;42611;51.132;13.588;2022-08-19T16:19:03;39.5;33.7;
56360;PMS7003;42611;51.132;13.588;2022-08-19T16:24:04;41.7;35.0;
56360;PMS7003;42611;51.132;13.588;2022-08-19T16:29:02;41.8;34.9;
56360;PMS7003;42611;51.132;13.588;2022-08-19T16:34:02;40.2;34.4;
56360;PMS7003;42611;51.132;13.588;2022-08-19T16:39:01;39.4;34.0;
56360;PMS7003;42611;51.132;13.588;2022-08-19T16:44:02;39.6;34.2;
56360;PMS7003;42611;51.132;13.588;2022-08-19T16:49:02;38.2;33.3;
56360;PMS7003;42611;51.132;13.588;2022-08-19T16:54:02;37.3;32.7;
56360;PMS7003;42611;51.132;13.588;2022-08-19T16:59:01;38.0;33.1;
56360;PMS7003;42611;51.132;13.588;2022-08-19T17:04:01;36.6;32.4;
56360;PMS7003;42611;51.132;13.588;2022-08-19T17:09:06;35.5;31.7;
56360;PMS7003;42611;51.132;13.588;2022-08-19T17:14:03;35.3;31.5;
56360;PMS7003;42611;51.132;13.588;2022-08-19T17:19:03;36.2;32.0;
56360;PMS7003;42611;51.132;13.588;2022-08-19T17:24:02;36.4;31.6;
56360;PMS7003;42611;51.132;13.588;2022-08-19T17:29:02;39.0;32.8;
56360;PMS7003;42611;51.132;13.588;2022-08-19T17:34:04;39.7;33.2;
56360;PMS7003;42611;51.132;13.588;2022-08-19T17:39:02;39.2;33.2;
56360;PMS7003;42611;51.132;13.588;2022-08-19T17:44:02;37.6;32.6;
56360;PMS7003;42611;51.132;13.588;2022-08-19T17:49:02;37.2;32.6;
56360;PMS7003;42611;51.132;13.588;2022-08-19T17:54:01;36.4;31.7;
56360;PMS7003;42611;51.132;13.588;2022-08-19T18:04:02;38.1;32.2;
56360;PMS7003;42611;51.132;13.588;2022-08-19T18:09:03;38.2;32.2;
56360;PMS7003;42611;51.132;13.588;2022-08-19T18:14:02;39.0;32.8;
56360;PMS7003;42611;51.132;13.588;2022-08-19T18:19:01;38.4;33.1;
56360;PMS7003;42611;51.132;13.588;2022-08-19T18:24:02;38.7;33.3;
56360;PMS7003;42611;51.132;13.588;2022-08-19T18:29:02;36.2;32.2;
56360;PMS7003;42611;51.132;13.588;2022-08-19T18:34:02;37.2;32.7;
56360;PMS7003;42611;51.132;13.588;2022-08-19T18:39:08;36.2;32.3;
56360;PMS7003;42611;51.132;13.588;2022-08-19T18:44:02;36.7;32.6;
56360;PMS7003;42611;51.132;13.588;2022-08-19T18:50:06;37.7;33.5;
56360;PMS7003;42611;51.132;13.588;2022-08-19T18:55:02;39.7;34.4;
56360;PMS7003;42611;51.132;13.588;2022-08-19T19:00:03;38.6;33.8;
56360;PMS7003;42611;51.132;13.588;2022-08-19T19:05:07;40.0;34.6;
56360;PMS7003;42611;51.132;13.588;2022-08-19T19:10:02;40.4;34.3;
56360;PMS7003;42611;51.132;13.588;2022-08-19T19:15:02;39.7;33.2;
56360;PMS7003;42611;51.132;13.588;2022-08-19T19:20:02;38.8;32.7;
56360;PMS7003;42611;51.132;13.588;2022-08-19T19:25:03;40.3;33.0;
56360;PMS7003;42611;51.132;13.588;2022-08-19T19:30:07;38.8;32.0;
56360;PMS7003;42611;51.132;13.588;2022-08-19T19:36:02;37.7;32.0;
56360;PMS7003;42611;51.132;13.588;2022-08-19T19:41:02;36.5;31.6;
56360;PMS7003;42611;51.132;13.588;2022-08-19T19:46:01;34.8;30.8;
56360;PMS7003;42611;51.132;13.588;2022-08-19T19:51:03;32.7;30.0;
56360;PMS7003;42611;51.132;13.588;2022-08-19T19:56:01;31.6;29.4;
56360;PMS7003;42611;51.132;13.588;2022-08-19T20:01:10;29.5;27.5;
56360;PMS7003;42611;51.132;13.588;2022-08-19T20:06:02;28.1;26.5;
56360;PMS7003;42611;51.132;13.588;2022-08-19T20:16:01;26.4;25.0;
56360;PMS7003;42611;51.132;13.588;2022-08-19T20:21:02;25.5;24.4;
56360;PMS7003;42611;51.132;13.588;2022-08-19T20:26:03;26.7;25.2;
56360;PMS7003;42611;51.132;13.588;2022-08-19T20:31:05;26.9;25.9;
56360;PMS7003;42611;51.132;13.588;2022-08-19T20:36:01;26.6;25.5;
56360;PMS7003;42611;51.132;13.588;2022-08-19T20:41:02;28.6;27.0;
56360;PMS7003;42611;51.132;13.588;2022-08-19T20:46:02;28.4;26.6;
56360;PMS7003;42611;51.132;13.588;2022-08-19T20:51:07;27.4;25.8;
56360;PMS7003;42611;51.132;13.588;2022-08-19T20:56:03;26.6;24.9;
56360;PMS7003;42611;51.132;13.588;2022-08-19T21:01:02;28.2;25.2;
56360;PMS7003;42611;51.132;13.588;2022-08-19T21:06:02;28.0;25.1;
56360;PMS7003;42611;51.132;13.588;2022-08-19T21:12:03;28.9;26.1;
56360;PMS7003;42611;51.132;13.588;2022-08-19T21:17:02;28.1;25.8;
56360;PMS7003;42611;51.132;13.588;2022-08-19T21:22:01;27.0;25.0;
56360;PMS7003;42611;51.132;13.588;2022-08-19T21:27:06;24.8;24.1;
56360;PMS7003;42611;51.132;13.588;2022-08-19T21:32:02;24.9;24.3;
56360;PMS7003;42611;51.132;13.588;2022-08-19T21:37:02;23.2;22.2;
56360;PMS7003;42611;51.132;13.588;2022-08-19T21:42:01;23.8;22.5;
56360;PMS7003;42611;51.132;13.588;2022-08-19T21:47:01;25.4;23.7;
56360;PMS7003;42611;51.132;13.588;2022-08-19T21:52:02;25.0;23.1;
56360;PMS7003;42611;51.132;13.588;2022-08-19T21:57:11;24.0;22.1;
56360;PMS7003;42611;51.132;13.588;2022-08-19T22:02:16;24.9;23.1;
56360;PMS7003;42611;51.132;13.588;2022-08-19T22:07:01;25.6;23.8;
56360;PMS7003;42611;51.132;13.588;2022-08-19T22:12:02;27.0;24.9;
56360;PMS7003;42611;51.132;13.588;2022-08-19T22:17:02;29.4;27.1;
56360;PMS7003;42611;51.132;13.588;2022-08-19T22:22:02;29.1;27.0;
56360;PMS7003;42611;51.132;13.588;2022-08-19T22:27:02;30.0;27.8;
56360;PMS7003;42611;51.132;13.588;2022-08-19T22:32:29;27.8;26.0;
56360;PMS7003;42611;51.132;13.588;2022-08-19T22:37:01;25.1;23.8;
56360;PMS7003;42611;51.132;13.588;2022-08-19T22:42:01;24.9;23.6;
56360;PMS7003;42611;51.132;13.588;2022-08-19T22:52:01;23.4;22.4;
56360;PMS7003;42611;51.132;13.588;2022-08-19T22:57:02;24.6;23.3;
56360;PMS7003;42611;51.132;13.588;2022-08-19T23:02:02;25.6;24.2;
56360;PMS7003;42611;51.132;13.588;2022-08-19T23:07:06;26.6;24.5;
56360;PMS7003;42611;51.132;13.588;2022-08-19T23:12:01;26.9;24.6;
56360;PMS7003;42611;51.132;13.588;2022-08-19T23:17:02;30.2;26.9;
56360;PMS7003;42611;51.132;13.588;2022-08-19T23:22:01;29.8;26.6;
56360;PMS7003;42611;51.132;13.588;2022-08-19T23:27:01;29.7;26.5;
56360;PMS7003;42611;51.132;13.588;2022-08-19T23:32:02;26.3;23.8;
56360;PMS7003;42611;51.132;13.588;2022-08-19T23:37:01;25.8;23.3;
56360;PMS7003;42611;51.132;13.588;2022-08-19T23:42:02;22.4;21.2;
56360;PMS7003;42611;51.132;13.588;2022-08-19T23:47:07;24.6;23.0;
56360;PMS7003;42611;51.132;13.588;2022-08-19T23:52:02;25.8;24.1;
56360;PMS7003;42611;51.132;13.588;2022-08-19T23:57:03;27.8;26.3;
